Swedeborg, Missouri
Current Conditions -  °F | °C
As of 6:36 AM on Sunday 23 Nov 2014 (Local Time) from KTBN Reporting Station
Overcast Overcast  
Wind Chill: 52°   Ceiling: 900
Heat Index: 52°   Visibility: 10mi
Dew Point: 52°   Wind: 10mph
Humidity: 100%   Direction: 150°SSE
Pressure: 29.65"   Gusts: NA
Location:  37.91°N, 92.33°W
Report Text: KTBN 231236Z AUTO 15009KT 10SM BKN009 OVC032 11/11 A2965 RMK AO2 RAE1232DZB1232E1236
Loading
Personal Weather Stations






























Interactive Weather Map New forecast layout! Learn more

10-Day Weather Forecast

Advertisements
Track Severe Weather on mobile